sensor_id;sensor_type;location;lat;lon;timestamp;P1;durP1;ratioP1;P2;durP2;ratioP2
72060;SDS011;59925;52.136;5.420;2023-07-13T00:00:37;3.90;;;1.07;;
72060;SDS011;59925;52.136;5.420;2023-07-13T00:03:05;8.88;;;1.20;;
72060;SDS011;59925;52.136;5.420;2023-07-13T00:05:32;3.80;;;0.98;;
72060;SDS011;59925;52.136;5.420;2023-07-13T00:07:59;8.20;;;1.70;;
72060;SDS011;59925;52.136;5.420;2023-07-13T00:10:26;9.50;;;1.48;;
72060;SDS011;59925;52.136;5.420;2023-07-13T00:12:52;7.33;;;1.10;;
72060;SDS011;59925;52.136;5.420;2023-07-13T00:15:22;4.05;;;1.20;;
72060;SDS011;59925;52.136;5.420;2023-07-13T00:17:51;9.05;;;1.42;;
72060;SDS011;59925;52.136;5.420;2023-07-13T00:20:20;5.35;;;1.30;;
72060;SDS011;59925;52.136;5.420;2023-07-13T00:22:51;8.80;;;1.38;;
72060;SDS011;59925;52.136;5.420;2023-07-13T00:25:22;6.60;;;1.10;;
72060;SDS011;59925;52.136;5.420;2023-07-13T00:27:54;7.38;;;1.52;;
72060;SDS011;59925;52.136;5.420;2023-07-13T00:30:21;7.55;;;1.60;;
72060;SDS011;59925;52.136;5.420;2023-07-13T00:32:48;6.25;;;1.25;;
72060;SDS011;59925;52.136;5.420;2023-07-13T00:35:26;5.88;;;1.20;;
72060;SDS011;59925;52.136;5.420;2023-07-13T00:37:53;8.30;;;1.20;;
72060;SDS011;59925;52.136;5.420;2023-07-13T00:40:19;5.78;;;1.25;;
72060;SDS011;59925;52.136;5.420;2023-07-13T00:42:46;3.63;;;0.90;;
72060;SDS011;59925;52.136;5.420;2023-07-13T00:47:39;5.68;;;1.00;;
72060;SDS011;59925;52.136;5.420;2023-07-13T00:50:07;6.40;;;1.10;;
72060;SDS011;59925;52.136;5.420;2023-07-13T00:52:36;5.03;;;1.20;;
72060;SDS011;59925;52.136;5.420;2023-07-13T00:55:06;4.05;;;0.85;;
72060;SDS011;59925;52.136;5.420;2023-07-13T00:57:35;5.97;;;1.10;;
72060;SDS011;59925;52.136;5.420;2023-07-13T01:00:03;5.88;;;1.20;;
72060;SDS011;59925;52.136;5.420;2023-07-13T01:02:33;5.83;;;1.10;;
72060;SDS011;59925;52.136;5.420;2023-07-13T01:05:01;6.60;;;1.50;;
72060;SDS011;59925;52.136;5.420;2023-07-13T01:07:28;5.90;;;1.00;;
72060;SDS011;59925;52.136;5.420;2023-07-13T01:09:55;6.85;;;1.80;;
72060;SDS011;59925;52.136;5.420;2023-07-13T01:12:21;8.25;;;2.25;;
72060;SDS011;59925;52.136;5.420;2023-07-13T01:14:48;5.03;;;1.00;;
72060;SDS011;59925;52.136;5.420;2023-07-13T01:17:14;4.03;;;1.08;;
72060;SDS011;59925;52.136;5.420;2023-07-13T01:19:42;5.72;;;1.38;;
72060;SDS011;59925;52.136;5.420;2023-07-13T01:22:15;4.75;;;1.20;;
72060;SDS011;59925;52.136;5.420;2023-07-13T01:24:44;9.65;;;1.83;;
72060;SDS011;59925;52.136;5.420;2023-07-13T01:27:14;8.30;;;1.20;;
72060;SDS011;59925;52.136;5.420;2023-07-13T01:29:44;4.85;;;0.80;;
72060;SDS011;59925;52.136;5.420;2023-07-13T01:32:17;6.50;;;1.20;;
72060;SDS011;59925;52.136;5.420;2023-07-13T01:34:50;5.05;;;1.05;;
72060;SDS011;59925;52.136;5.420;2023-07-13T01:37:20;4.30;;;1.00;;
72060;SDS011;59925;52.136;5.420;2023-07-13T01:39:48;4.37;;;1.00;;
72060;SDS011;59925;52.136;5.420;2023-07-13T01:42:14;7.75;;;1.50;;
72060;SDS011;59925;52.136;5.420;2023-07-13T01:44:41;5.15;;;0.88;;
72060;SDS011;59925;52.136;5.420;2023-07-13T01:47:09;7.75;;;1.30;;
72060;SDS011;59925;52.136;5.420;2023-07-13T01:49:36;5.03;;;0.85;;
72060;SDS011;59925;52.136;5.420;2023-07-13T01:52:04;7.07;;;1.30;;
72060;SDS011;59925;52.136;5.420;2023-07-13T01:54:31;5.47;;;0.90;;
72060;SDS011;59925;52.136;5.420;2023-07-13T01:57:00;6.03;;;1.17;;
72060;SDS011;59925;52.136;5.420;2023-07-13T01:59:26;4.30;;;1.30;;
72060;SDS011;59925;52.136;5.420;2023-07-13T02:01:53;8.65;;;1.40;;
72060;SDS011;59925;52.136;5.420;2023-07-13T02:04:19;7.03;;;1.30;;
72060;SDS011;59925;52.136;5.420;2023-07-13T02:06:46;8.45;;;1.00;;
72060;SDS011;59925;52.136;5.420;2023-07-13T02:09:12;7.20;;;1.38;;
72060;SDS011;59925;52.136;5.420;2023-07-13T02:11:39;5.93;;;1.23;;
72060;SDS011;59925;52.136;5.420;2023-07-13T02:14:06;6.22;;;1.20;;
72060;SDS011;59925;52.136;5.420;2023-07-13T02:16:32;5.57;;;1.13;;
72060;SDS011;59925;52.136;5.420;2023-07-13T02:18:59;5.57;;;1.45;;
72060;SDS011;59925;52.136;5.420;2023-07-13T02:21:27;5.10;;;1.17;;
72060;SDS011;59925;52.136;5.420;2023-07-13T02:23:54;4.88;;;1.35;;
72060;SDS011;59925;52.136;5.420;2023-07-13T02:26:21;5.70;;;1.30;;
72060;SDS011;59925;52.136;5.420;2023-07-13T02:28:47;6.50;;;1.10;;
72060;SDS011;59925;52.136;5.420;2023-07-13T02:31:14;7.28;;;1.67;;
72060;SDS011;59925;52.136;5.420;2023-07-13T02:33:42;5.55;;;1.58;;
72060;SDS011;59925;52.136;5.420;2023-07-13T02:36:09;6.43;;;1.20;;
72060;SDS011;59925;52.136;5.420;2023-07-13T02:38:37;5.70;;;1.23;;
72060;SDS011;59925;52.136;5.420;2023-07-13T02:41:05;5.23;;;1.27;;
72060;SDS011;59925;52.136;5.420;2023-07-13T02:43:33;4.88;;;1.20;;
72060;SDS011;59925;52.136;5.420;2023-07-13T02:46:00;4.43;;;1.08;;
72060;SDS011;59925;52.136;5.420;2023-07-13T02:48:33;6.25;;;1.35;;
72060;SDS011;59925;52.136;5.420;2023-07-13T02:51:00;4.35;;;1.33;;
72060;SDS011;59925;52.136;5.420;2023-07-13T02:53:27;5.13;;;1.03;;
72060;SDS011;59925;52.136;5.420;2023-07-13T02:55:54;7.75;;;1.65;;
72060;SDS011;59925;52.136;5.420;2023-07-13T02:58:20;5.90;;;1.52;;
72060;SDS011;59925;52.136;5.420;2023-07-13T03:00:47;4.35;;;1.42;;
72060;SDS011;59925;52.136;5.420;2023-07-13T03:03:16;9.02;;;2.55;;
72060;SDS011;59925;52.136;5.420;2023-07-13T03:05:43;4.70;;;1.40;;
72060;SDS011;59925;52.136;5.420;2023-07-13T03:08:16;6.47;;;1.48;;
72060;SDS011;59925;52.136;5.420;2023-07-13T03:10:44;7.43;;;1.73;;
72060;SDS011;59925;52.136;5.420;2023-07-13T03:13:11;8.35;;;1.50;;
72060;SDS011;59925;52.136;5.420;2023-07-13T03:15:37;8.73;;;1.40;;
72060;SDS011;59925;52.136;5.420;2023-07-13T03:18:04;10.23;;;1.70;;
72060;SDS011;59925;52.136;5.420;2023-07-13T03:20:32;8.45;;;1.98;;
72060;SDS011;59925;52.136;5.420;2023-07-13T03:23:01;8.82;;;1.65;;
72060;SDS011;59925;52.136;5.420;2023-07-13T03:25:30;9.90;;;1.55;;
72060;SDS011;59925;52.136;5.420;2023-07-13T03:27:57;6.93;;;2.00;;
72060;SDS011;59925;52.136;5.420;2023-07-13T03:30:24;9.70;;;1.80;;
72060;SDS011;59925;52.136;5.420;2023-07-13T03:32:50;5.72;;;1.75;;
72060;SDS011;59925;52.136;5.420;2023-07-13T03:35:17;4.55;;;1.77;;
72060;SDS011;59925;52.136;5.420;2023-07-13T03:37:44;6.25;;;1.80;;
72060;SDS011;59925;52.136;5.420;2023-07-13T03:40:10;5.50;;;1.67;;
72060;SDS011;59925;52.136;5.420;2023-07-13T03:42:38;8.77;;;2.03;;
72060;SDS011;59925;52.136;5.420;2023-07-13T03:45:05;7.40;;;2.05;;
72060;SDS011;59925;52.136;5.420;2023-07-13T03:47:32;7.38;;;2.28;;
72060;SDS011;59925;52.136;5.420;2023-07-13T03:49:58;11.20;;;2.22;;
72060;SDS011;59925;52.136;5.420;2023-07-13T03:52:25;9.18;;;2.00;;
72060;SDS011;59925;52.136;5.420;2023-07-13T03:54:52;7.97;;;1.93;;
72060;SDS011;59925;52.136;5.420;2023-07-13T03:57:18;8.75;;;2.22;;
72060;SDS011;59925;52.136;5.420;2023-07-13T03:59:45;5.28;;;1.80;;
72060;SDS011;59925;52.136;5.420;2023-07-13T04:02:11;6.28;;;1.80;;
72060;SDS011;59925;52.136;5.420;2023-07-13T04:04:38;8.10;;;2.20;;
72060;SDS011;59925;52.136;5.420;2023-07-13T04:07:07;13.33;;;2.10;;
72060;SDS011;59925;52.136;5.420;2023-07-13T04:09:35;10.70;;;2.17;;
72060;SDS011;59925;52.136;5.420;2023-07-13T04:12:02;7.18;;;2.63;;
72060;SDS011;59925;52.136;5.420;2023-07-13T04:14:29;8.40;;;2.25;;
72060;SDS011;59925;52.136;5.420;2023-07-13T04:16:56;8.48;;;2.47;;
72060;SDS011;59925;52.136;5.420;2023-07-13T04:19:22;8.10;;;1.80;;
72060;SDS011;59925;52.136;5.420;2023-07-13T04:21:49;7.35;;;2.25;;
72060;SDS011;59925;52.136;5.420;2023-07-13T04:24:16;8.18;;;2.50;;
72060;SDS011;59925;52.136;5.420;2023-07-13T04:26:42;10.27;;;2.17;;
72060;SDS011;59925;52.136;5.420;2023-07-13T04:29:09;8.60;;;2.25;;
72060;SDS011;59925;52.136;5.420;2023-07-13T04:31:36;11.50;;;2.53;;
72060;SDS011;59925;52.136;5.420;2023-07-13T04:34:03;8.02;;;2.10;;
72060;SDS011;59925;52.136;5.420;2023-07-13T04:36:29;6.30;;;2.42;;
72060;SDS011;59925;52.136;5.420;2023-07-13T04:38:56;11.55;;;2.17;;
72060;SDS011;59925;52.136;5.420;2023-07-13T04:41:23;10.98;;;2.40;;
72060;SDS011;59925;52.136;5.420;2023-07-13T04:43:49;12.80;;;2.20;;
72060;SDS011;59925;52.136;5.420;2023-07-13T04:46:17;9.20;;;2.67;;
72060;SDS011;59925;52.136;5.420;2023-07-13T04:48:45;9.65;;;2.30;;
72060;SDS011;59925;52.136;5.420;2023-07-13T04:51:12;11.80;;;2.83;;
72060;SDS011;59925;52.136;5.420;2023-07-13T04:53:38;9.15;;;2.47;;
72060;SDS011;59925;52.136;5.420;2023-07-13T04:56:05;11.20;;;2.30;;
72060;SDS011;59925;52.136;5.420;2023-07-13T04:58:32;9.35;;;2.90;;
72060;SDS011;59925;52.136;5.420;2023-07-13T05:01:03;11.70;;;3.17;;
72060;SDS011;59925;52.136;5.420;2023-07-13T05:03:31;7.68;;;2.63;;
72060;SDS011;59925;52.136;5.420;2023-07-13T05:06:00;10.05;;;3.05;;
72060;SDS011;59925;52.136;5.420;2023-07-13T05:08:29;11.20;;;3.77;;
72060;SDS011;59925;52.136;5.420;2023-07-13T05:10:56;10.20;;;2.83;;
72060;SDS011;59925;52.136;5.420;2023-07-13T05:13:25;9.48;;;2.70;;
72060;SDS011;59925;52.136;5.420;2023-07-13T05:15:56;14.73;;;3.40;;
72060;SDS011;59925;52.136;5.420;2023-07-13T05:18:27;9.60;;;2.88;;
72060;SDS011;59925;52.136;5.420;2023-07-13T05:20:56;11.57;;;3.30;;
72060;SDS011;59925;52.136;5.420;2023-07-13T05:23:28;11.38;;;2.67;;
72060;SDS011;59925;52.136;5.420;2023-07-13T05:25:55;13.45;;;3.42;;
72060;SDS011;59925;52.136;5.420;2023-07-13T05:28:22;10.85;;;3.13;;
72060;SDS011;59925;52.136;5.420;2023-07-13T05:30:49;14.45;;;3.30;;
72060;SDS011;59925;52.136;5.420;2023-07-13T05:33:16;10.17;;;3.10;;
72060;SDS011;59925;52.136;5.420;2023-07-13T05:35:43;20.05;;;3.10;;
72060;SDS011;59925;52.136;5.420;2023-07-13T05:38:10;11.45;;;3.03;;
72060;SDS011;59925;52.136;5.420;2023-07-13T05:40:36;12.40;;;4.00;;
72060;SDS011;59925;52.136;5.420;2023-07-13T05:43:03;11.40;;;3.97;;
72060;SDS011;59925;52.136;5.420;2023-07-13T05:45:30;12.47;;;4.17;;
72060;SDS011;59925;52.136;5.420;2023-07-13T05:47:56;10.20;;;3.80;;
72060;SDS011;59925;52.136;5.420;2023-07-13T05:50:23;13.63;;;4.47;;
72060;SDS011;59925;52.136;5.420;2023-07-13T05:52:50;18.65;;;4.38;;
72060;SDS011;59925;52.136;5.420;2023-07-13T05:55:17;13.88;;;4.95;;
72060;SDS011;59925;52.136;5.420;2023-07-13T05:57:43;14.77;;;4.60;;
72060;SDS011;59925;52.136;5.420;2023-07-13T06:00:10;14.88;;;5.45;;
72060;SDS011;59925;52.136;5.420;2023-07-13T06:02:37;16.20;;;5.72;;
72060;SDS011;59925;52.136;5.420;2023-07-13T06:05:04;14.85;;;4.93;;
72060;SDS011;59925;52.136;5.420;2023-07-13T06:07:31;15.45;;;5.53;;
72060;SDS011;59925;52.136;5.420;2023-07-13T06:09:57;14.53;;;6.10;;
72060;SDS011;59925;52.136;5.420;2023-07-13T06:12:26;17.52;;;5.47;;
72060;SDS011;59925;52.136;5.420;2023-07-13T06:14:53;11.90;;;5.20;;
72060;SDS011;59925;52.136;5.420;2023-07-13T06:17:19;15.73;;;5.82;;
72060;SDS011;59925;52.136;5.420;2023-07-13T06:19:46;12.95;;;4.90;;
72060;SDS011;59925;52.136;5.420;2023-07-13T06:22:13;17.83;;;5.40;;
72060;SDS011;59925;52.136;5.420;2023-07-13T06:24:39;18.73;;;6.68;;
72060;SDS011;59925;52.136;5.420;2023-07-13T06:27:06;13.18;;;5.78;;
72060;SDS011;59925;52.136;5.420;2023-07-13T06:29:33;12.05;;;5.13;;
72060;SDS011;59925;52.136;5.420;2023-07-13T06:32:00;14.80;;;5.63;;
72060;SDS011;59925;52.136;5.420;2023-07-13T06:34:27;17.10;;;6.00;;
72060;SDS011;59925;52.136;5.420;2023-07-13T06:36:54;16.52;;;6.60;;
72060;SDS011;59925;52.136;5.420;2023-07-13T06:39:20;13.27;;;5.95;;
72060;SDS011;59925;52.136;5.420;2023-07-13T06:41:47;19.27;;;6.60;;
72060;SDS011;59925;52.136;5.420;2023-07-13T06:44:14;16.55;;;6.22;;
72060;SDS011;59925;52.136;5.420;2023-07-13T06:46:40;15.37;;;6.40;;
72060;SDS011;59925;52.136;5.420;2023-07-13T06:49:08;16.42;;;5.78;;
72060;SDS011;59925;52.136;5.420;2023-07-13T06:51:35;13.18;;;5.70;;
72060;SDS011;59925;52.136;5.420;2023-07-13T06:54:02;17.23;;;6.45;;
72060;SDS011;59925;52.136;5.420;2023-07-13T06:56:29;18.63;;;6.65;;
72060;SDS011;59925;52.136;5.420;2023-07-13T06:58:56;15.27;;;6.23;;
72060;SDS011;59925;52.136;5.420;2023-07-13T07:01:22;12.90;;;5.70;;
72060;SDS011;59925;52.136;5.420;2023-07-13T07:03:49;12.18;;;6.50;;
72060;SDS011;59925;52.136;5.420;2023-07-13T07:06:17;12.80;;;6.32;;
72060;SDS011;59925;52.136;5.420;2023-07-13T07:08:46;14.30;;;6.47;;
72060;SDS011;59925;52.136;5.420;2023-07-13T07:11:13;12.60;;;6.07;;
72060;SDS011;59925;52.136;5.420;2023-07-13T07:13:42;15.43;;;6.18;;
72060;SDS011;59925;52.136;5.420;2023-07-13T07:16:09;14.20;;;5.60;;
72060;SDS011;59925;52.136;5.420;2023-07-13T07:18:36;12.38;;;5.40;;
72060;SDS011;59925;52.136;5.420;2023-07-13T07:21:03;13.05;;;6.07;;
72060;SDS011;59925;52.136;5.420;2023-07-13T07:23:29;13.80;;;6.00;;
72060;SDS011;59925;52.136;5.420;2023-07-13T07:25:56;18.10;;;7.28;;
72060;SDS011;59925;52.136;5.420;2023-07-13T07:28:23;17.05;;;6.40;;
72060;SDS011;59925;52.136;5.420;2023-07-13T07:30:53;14.88;;;6.80;;
72060;SDS011;59925;52.136;5.420;2023-07-13T07:33:41;14.15;;;6.05;;
72060;SDS011;59925;52.136;5.420;2023-07-13T07:36:08;12.87;;;6.20;;
72060;SDS011;59925;52.136;5.420;2023-07-13T07:38:37;13.35;;;6.43;;
72060;SDS011;59925;52.136;5.420;2023-07-13T07:41:04;12.20;;;6.47;;
72060;SDS011;59925;52.136;5.420;2023-07-13T07:43:34;18.10;;;6.55;;
72060;SDS011;59925;52.136;5.420;2023-07-13T07:46:02;13.98;;;5.90;;
72060;SDS011;59925;52.136;5.420;2023-07-13T07:48:29;12.27;;;7.07;;
72060;SDS011;59925;52.136;5.420;2023-07-13T07:50:56;15.38;;;7.70;;
72060;SDS011;59925;52.136;5.420;2023-07-13T07:53:23;15.00;;;7.18;;
72060;SDS011;59925;52.136;5.420;2023-07-13T07:55:49;15.27;;;7.22;;
72060;SDS011;59925;52.136;5.420;2023-07-13T07:58:20;12.57;;;6.70;;
72060;SDS011;59925;52.136;5.420;2023-07-13T08:00:49;15.93;;;7.10;;
72060;SDS011;59925;52.136;5.420;2023-07-13T08:03:19;12.30;;;7.20;;
72060;SDS011;59925;52.136;5.420;2023-07-13T08:05:48;13.18;;;6.82;;
72060;SDS011;59925;52.136;5.420;2023-07-13T08:08:18;12.82;;;6.70;;
72060;SDS011;59925;52.136;5.420;2023-07-13T08:10:44;13.95;;;5.63;;
72060;SDS011;59925;52.136;5.420;2023-07-13T08:13:11;12.93;;;5.97;;
72060;SDS011;59925;52.136;5.420;2023-07-13T08:15:37;12.82;;;6.00;;
72060;SDS011;59925;52.136;5.420;2023-07-13T08:18:04;10.68;;;5.68;;
72060;SDS011;59925;52.136;5.420;2023-07-13T08:20:31;13.75;;;5.88;;
72060;SDS011;59925;52.136;5.420;2023-07-13T08:22:57;13.93;;;6.20;;
72060;SDS011;59925;52.136;5.420;2023-07-13T08:25:24;14.33;;;5.97;;
72060;SDS011;59925;52.136;5.420;2023-07-13T08:27:51;8.63;;;4.45;;
72060;SDS011;59925;52.136;5.420;2023-07-13T08:30:17;10.05;;;4.28;;
72060;SDS011;59925;52.136;5.420;2023-07-13T08:32:44;13.95;;;5.28;;
72060;SDS011;59925;52.136;5.420;2023-07-13T08:35:11;13.55;;;4.43;;
72060;SDS011;59925;52.136;5.420;2023-07-13T08:37:38;9.53;;;4.20;;
72060;SDS011;59925;52.136;5.420;2023-07-13T08:40:04;7.80;;;4.13;;
72060;SDS011;59925;52.136;5.420;2023-07-13T08:45:24;10.90;;;4.13;;
72060;SDS011;59925;52.136;5.420;2023-07-13T08:47:54;8.52;;;3.30;;
72060;SDS011;59925;52.136;5.420;2023-07-13T08:50:27;8.33;;;3.23;;
72060;SDS011;59925;52.136;5.420;2023-07-13T08:53:11;4.43;;;2.20;;
72060;SDS011;59925;52.136;5.420;2023-07-13T08:55:40;3.70;;;1.42;;
72060;SDS011;59925;52.136;5.420;2023-07-13T08:58:14;5.88;;;1.48;;
72060;SDS011;59925;52.136;5.420;2023-07-13T09:00:48;3.17;;;1.38;;
72060;SDS011;59925;52.136;5.420;2023-07-13T09:03:25;5.27;;;1.30;;
72060;SDS011;59925;52.136;5.420;2023-07-13T09:06:00;3.13;;;1.50;;
72060;SDS011;59925;52.136;5.420;2023-07-13T09:08:31;3.17;;;1.52;;
72060;SDS011;59925;52.136;5.420;2023-07-13T09:14:24;5.07;;;1.70;;
72060;SDS011;59925;52.136;5.420;2023-07-13T09:17:02;4.37;;;1.53;;
72060;SDS011;59925;52.136;5.420;2023-07-13T09:19:31;4.05;;;1.48;;
72060;SDS011;59925;52.136;5.420;2023-07-13T09:22:02;4.72;;;1.98;;
72060;SDS011;59925;52.136;5.420;2023-07-13T09:24:38;4.85;;;1.60;;
72060;SDS011;59925;52.136;5.420;2023-07-13T09:27:15;6.72;;;2.20;;
72060;SDS011;59925;52.136;5.420;2023-07-13T09:30:23;5.43;;;2.00;;
72060;SDS011;59925;52.136;5.420;2023-07-13T09:32:41;5.10;;;2.35;;
72060;SDS011;59925;52.136;5.420;2023-07-13T09:35:11;6.20;;;2.20;;
72060;SDS011;59925;52.136;5.420;2023-07-13T09:37:40;5.10;;;2.10;;
72060;SDS011;59925;52.136;5.420;2023-07-13T09:40:17;3.58;;;1.70;;
72060;SDS011;59925;52.136;5.420;2023-07-13T09:42:49;7.13;;;1.90;;
72060;SDS011;59925;52.136;5.420;2023-07-13T09:45:17;5.53;;;1.90;;
72060;SDS011;59925;52.136;5.420;2023-07-13T09:48:03;4.47;;;1.45;;
72060;SDS011;59925;52.136;5.420;2023-07-13T09:50:39;4.75;;;1.73;;
72060;SDS011;59925;52.136;5.420;2023-07-13T09:53:11;4.70;;;1.48;;
72060;SDS011;59925;52.136;5.420;2023-07-13T09:55:39;6.17;;;2.00;;
72060;SDS011;59925;52.136;5.420;2023-07-13T09:58:12;7.00;;;2.22;;
72060;SDS011;59925;52.136;5.420;2023-07-13T10:00:42;6.78;;;2.47;;
72060;SDS011;59925;52.136;5.420;2023-07-13T10:03:20;7.90;;;2.63;;
72060;SDS011;59925;52.136;5.420;2023-07-13T10:05:49;7.75;;;2.22;;
72060;SDS011;59925;52.136;5.420;2023-07-13T10:08:21;7.20;;;2.77;;
72060;SDS011;59925;52.136;5.420;2023-07-13T10:10:57;5.30;;;2.65;;
72060;SDS011;59925;52.136;5.420;2023-07-13T10:13:33;4.72;;;2.55;;
72060;SDS011;59925;52.136;5.420;2023-07-13T10:16:05;4.70;;;2.58;;
72060;SDS011;59925;52.136;5.420;2023-07-13T10:21:21;5.03;;;2.03;;
72060;SDS011;59925;52.136;5.420;2023-07-13T10:29:38;5.70;;;2.58;;
72060;SDS011;59925;52.136;5.420;2023-07-13T10:32:10;5.82;;;2.30;;
72060;SDS011;59925;52.136;5.420;2023-07-13T10:34:39;4.40;;;2.00;;
72060;SDS011;59925;52.136;5.420;2023-07-13T10:37:15;5.22;;;2.30;;
72060;SDS011;59925;52.136;5.420;2023-07-13T10:39:46;4.28;;;2.60;;
72060;SDS011;59925;52.136;5.420;2023-07-13T10:42:15;5.43;;;2.53;;
72060;SDS011;59925;52.136;5.420;2023-07-13T10:44:53;5.03;;;2.75;;
72060;SDS011;59925;52.136;5.420;2023-07-13T10:47:19;5.37;;;2.37;;
72060;SDS011;59925;52.136;5.420;2023-07-13T10:49:46;7.88;;;2.70;;
72060;SDS011;59925;52.136;5.420;2023-07-13T10:55:32;4.35;;;2.00;;
72060;SDS011;59925;52.136;5.420;2023-07-13T10:58:20;4.05;;;1.75;;
72060;SDS011;59925;52.136;5.420;2023-07-13T11:13:59;3.47;;;1.63;;
72060;SDS011;59925;52.136;5.420;2023-07-13T11:16:42;3.58;;;1.60;;
72060;SDS011;59925;52.136;5.420;2023-07-13T11:27:21;2.93;;;1.63;;
72060;SDS011;59925;52.136;5.420;2023-07-13T11:33:07;5.18;;;2.10;;
72060;SDS011;59925;52.136;5.420;2023-07-13T11:35:42;4.72;;;1.88;;
72060;SDS011;59925;52.136;5.420;2023-07-13T11:38:24;8.63;;;2.20;;
72060;SDS011;59925;52.136;5.420;2023-07-13T11:40:58;4.57;;;2.20;;
72060;SDS011;59925;52.136;5.420;2023-07-13T11:43:29;6.55;;;2.53;;
72060;SDS011;59925;52.136;5.420;2023-07-13T11:45:56;5.43;;;2.33;;
72060;SDS011;59925;52.136;5.420;2023-07-13T11:48:26;4.95;;;2.33;;
72060;SDS011;59925;52.136;5.420;2023-07-13T11:50:58;5.90;;;2.78;;
72060;SDS011;59925;52.136;5.420;2023-07-13T11:53:29;7.60;;;2.70;;
72060;SDS011;59925;52.136;5.420;2023-07-13T11:56:04;6.28;;;2.67;;
72060;SDS011;59925;52.136;5.420;2023-07-13T11:58:32;6.75;;;2.70;;
72060;SDS011;59925;52.136;5.420;2023-07-13T12:00:59;5.15;;;2.33;;
72060;SDS011;59925;52.136;5.420;2023-07-13T12:03:31;5.10;;;2.30;;
72060;SDS011;59925;52.136;5.420;2023-07-13T12:06:02;5.80;;;2.40;;
72060;SDS011;59925;52.136;5.420;2023-07-13T12:08:38;6.47;;;2.90;;
72060;SDS011;59925;52.136;5.420;2023-07-13T12:11:11;5.03;;;2.97;;
72060;SDS011;59925;52.136;5.420;2023-07-13T12:13:43;7.20;;;2.47;;
72060;SDS011;59925;52.136;5.420;2023-07-13T12:16:16;6.20;;;3.28;;
72060;SDS011;59925;52.136;5.420;2023-07-13T12:18:49;4.07;;;2.40;;
72060;SDS011;59925;52.136;5.420;2023-07-13T12:21:19;6.30;;;2.70;;
72060;SDS011;59925;52.136;5.420;2023-07-13T12:23:52;5.93;;;2.42;;
72060;SDS011;59925;52.136;5.420;2023-07-13T12:26:18;4.90;;;2.58;;
72060;SDS011;59925;52.136;5.420;2023-07-13T12:28:51;4.93;;;2.85;;
72060;SDS011;59925;52.136;5.420;2023-07-13T12:34:00;7.35;;;3.10;;
72060;SDS011;59925;52.136;5.420;2023-07-13T12:36:30;7.05;;;2.83;;
72060;SDS011;59925;52.136;5.420;2023-07-13T12:39:00;8.23;;;3.15;;
72060;SDS011;59925;52.136;5.420;2023-07-13T12:41:31;6.80;;;2.75;;
72060;SDS011;59925;52.136;5.420;2023-07-13T12:43:59;5.40;;;2.57;;
72060;SDS011;59925;52.136;5.420;2023-07-13T12:46:26;6.22;;;2.53;;
72060;SDS011;59925;52.136;5.420;2023-07-13T12:48:56;7.78;;;2.40;;
72060;SDS011;59925;52.136;5.420;2023-07-13T12:51:38;6.72;;;2.22;;
72060;SDS011;59925;52.136;5.420;2023-07-13T12:54:18;3.10;;;1.60;;
72060;SDS011;59925;52.136;5.420;2023-07-13T12:56:48;8.63;;;2.57;;
72060;SDS011;59925;52.136;5.420;2023-07-13T12:59:19;3.53;;;1.75;;
72060;SDS011;59925;52.136;5.420;2023-07-13T13:01:48;5.47;;;2.00;;
72060;SDS011;59925;52.136;5.420;2023-07-13T13:04:16;5.43;;;1.75;;
72060;SDS011;59925;52.136;5.420;2023-07-13T13:06:48;3.60;;;2.08;;
72060;SDS011;59925;52.136;5.420;2023-07-13T13:09:16;5.73;;;2.00;;
72060;SDS011;59925;52.136;5.420;2023-07-13T13:11:45;4.40;;;1.88;;
72060;SDS011;59925;52.136;5.420;2023-07-13T13:14:11;6.57;;;2.40;;
72060;SDS011;59925;52.136;5.420;2023-07-13T13:16:46;5.60;;;1.90;;
72060;SDS011;59925;52.136;5.420;2023-07-13T13:19:18;3.15;;;1.92;;
72060;SDS011;59925;52.136;5.420;2023-07-13T13:21:52;3.43;;;2.00;;
72060;SDS011;59925;52.136;5.420;2023-07-13T13:24:21;3.97;;;1.95;;
72060;SDS011;59925;52.136;5.420;2023-07-13T13:26:50;4.38;;;1.92;;
72060;SDS011;59925;52.136;5.420;2023-07-13T13:29:21;4.38;;;1.80;;
72060;SDS011;59925;52.136;5.420;2023-07-13T13:31:56;3.58;;;1.90;;
72060;SDS011;59925;52.136;5.420;2023-07-13T13:34:23;4.17;;;1.70;;
72060;SDS011;59925;52.136;5.420;2023-07-13T13:36:51;4.78;;;2.03;;
72060;SDS011;59925;52.136;5.420;2023-07-13T13:39:28;4.03;;;2.22;;
72060;SDS011;59925;52.136;5.420;2023-07-13T13:41:59;4.20;;;1.90;;
72060;SDS011;59925;52.136;5.420;2023-07-13T13:44:26;3.47;;;1.77;;
72060;SDS011;59925;52.136;5.420;2023-07-13T13:46:53;4.53;;;1.60;;
72060;SDS011;59925;52.136;5.420;2023-07-13T13:49:22;4.90;;;1.85;;
72060;SDS011;59925;52.136;5.420;2023-07-13T13:51:51;6.03;;;1.92;;
72060;SDS011;59925;52.136;5.420;2023-07-13T13:54:20;3.30;;;1.85;;
72060;SDS011;59925;52.136;5.420;2023-07-13T13:56:48;4.97;;;2.35;;
72060;SDS011;59925;52.136;5.420;2023-07-13T13:59:16;3.23;;;1.47;;
72060;SDS011;59925;52.136;5.420;2023-07-13T14:01:44;3.35;;;2.10;;
72060;SDS011;59925;52.136;5.420;2023-07-13T14:04:16;5.35;;;2.10;;
72060;SDS011;59925;52.136;5.420;2023-07-13T14:06:45;4.72;;;2.20;;
72060;SDS011;59925;52.136;5.420;2023-07-13T14:09:13;5.00;;;1.98;;
72060;SDS011;59925;52.136;5.420;2023-07-13T14:11:42;7.87;;;2.47;;
72060;SDS011;59925;52.136;5.420;2023-07-13T14:14:20;5.07;;;2.63;;
72060;SDS011;59925;52.136;5.420;2023-07-13T14:16:50;3.38;;;2.03;;
72060;SDS011;59925;52.136;5.420;2023-07-13T14:19:21;4.30;;;1.80;;
72060;SDS011;59925;52.136;5.420;2023-07-13T14:21:48;3.92;;;1.83;;
72060;SDS011;59925;52.136;5.420;2023-07-13T14:24:16;4.00;;;1.87;;
72060;SDS011;59925;52.136;5.420;2023-07-13T14:26:43;6.95;;;2.30;;
72060;SDS011;59925;52.136;5.420;2023-07-13T14:29:11;3.97;;;2.00;;
72060;SDS011;59925;52.136;5.420;2023-07-13T14:31:40;3.60;;;1.73;;
72060;SDS011;59925;52.136;5.420;2023-07-13T14:34:09;5.50;;;2.17;;
72060;SDS011;59925;52.136;5.420;2023-07-13T14:36:38;3.70;;;1.70;;
72060;SDS011;59925;52.136;5.420;2023-07-13T14:39:11;3.70;;;1.83;;
72060;SDS011;59925;52.136;5.420;2023-07-13T14:41:44;2.80;;;1.75;;
72060;SDS011;59925;52.136;5.420;2023-07-13T14:44:12;6.15;;;2.20;;
72060;SDS011;59925;52.136;5.420;2023-07-13T14:46:43;3.30;;;1.73;;
72060;SDS011;59925;52.136;5.420;2023-07-13T14:51:48;4.38;;;1.90;;
72060;SDS011;59925;52.136;5.420;2023-07-13T14:54:15;4.60;;;1.75;;
72060;SDS011;59925;52.136;5.420;2023-07-13T14:56:41;4.07;;;1.80;;
72060;SDS011;59925;52.136;5.420;2023-07-13T14:59:08;3.10;;;1.60;;
72060;SDS011;59925;52.136;5.420;2023-07-13T15:01:35;5.70;;;1.90;;
72060;SDS011;59925;52.136;5.420;2023-07-13T15:04:03;3.17;;;1.45;;
72060;SDS011;59925;52.136;5.420;2023-07-13T15:06:53;2.95;;;1.60;;
72060;SDS011;59925;52.136;5.420;2023-07-13T15:09:21;6.22;;;1.80;;
72060;SDS011;59925;52.136;5.420;2023-07-13T15:11:48;5.93;;;1.90;;
72060;SDS011;59925;52.136;5.420;2023-07-13T15:14:15;5.47;;;1.70;;
72060;SDS011;59925;52.136;5.420;2023-07-13T15:16:42;6.15;;;1.88;;
72060;SDS011;59925;52.136;5.420;2023-07-13T15:19:10;4.07;;;1.58;;
72060;SDS011;59925;52.136;5.420;2023-07-13T15:21:37;4.78;;;1.60;;
72060;SDS011;59925;52.136;5.420;2023-07-13T15:24:04;4.38;;;1.70;;
72060;SDS011;59925;52.136;5.420;2023-07-13T15:26:34;5.27;;;1.60;;
72060;SDS011;59925;52.136;5.420;2023-07-13T15:29:01;3.05;;;1.63;;
72060;SDS011;59925;52.136;5.420;2023-07-13T15:31:29;4.88;;;1.63;;
72060;SDS011;59925;52.136;5.420;2023-07-13T15:33:58;4.93;;;1.70;;
72060;SDS011;59925;52.136;5.420;2023-07-13T15:36:26;5.07;;;1.67;;
72060;SDS011;59925;52.136;5.420;2023-07-13T15:38:53;3.37;;;1.37;;
72060;SDS011;59925;52.136;5.420;2023-07-13T15:41:25;4.85;;;1.48;;
72060;SDS011;59925;52.136;5.420;2023-07-13T15:43:54;4.22;;;1.75;;